Time;durP1;ratioP1;P1;durP2;ratioP2;P2;SDS_P1;SDS_P2;PMS_P1;PMS_P2;Temp;Humidity;BMP_temperature;BMP_pressure;BME280_temperature;BME280_humidity;BME280_pressure;Samples;Min_cycle;Max_cycle;Signal;HPM_P1;HPM_P2
2023/10/25 00:00:06;;;;;;;15.50;9.82;;;;;;;;;;5023100;28;20341;-71
2023/10/25 00:02:32;;;;;;;13.82;8.93;;;;;;;;;;5034203;28;20036;-71
2023/10/25 00:04:57;;;;;;;12.40;8.48;;;;;;;;;;5033900;28;20043;-71
2023/10/25 00:07:23;;;;;;;12.18;8.85;;;;;;;;;;5052112;28;20029;-71
2023/10/25 00:09:48;;;;;;;11.95;8.70;;;;;;;;;;5024684;28;20034;-71
2023/10/25 00:12:14;;;;;;;11.38;7.53;;;;;;;;;;5014516;28;20095;-72
2023/10/25 00:14:41;;;;;;;11.65;8.65;;;;;;;;;;5032578;28;20029;-71
2023/10/25 00:17:07;;;;;;;15.00;9.05;;;;;;;;;;5043646;28;20414;-70
2023/10/25 00:19:34;;;;;;;12.65;8.95;;;;;;;;;;5027307;28;20490;-70
2023/10/25 00:22:00;;;;;;;11.88;8.05;;;;;;;;;;5032738;28;20040;-71
2023/10/25 00:24:25;;;;;;;12.95;8.35;;;;;;;;;;5033063;28;20105;-70
2023/10/25 00:26:51;;;;;;;11.77;8.50;;;;;;;;;;5014163;28;20038;-71
2023/10/25 00:29:16;;;;;;;13.88;8.75;;;;;;;;;;5032525;28;20026;-71
2023/10/25 00:31:42;;;;;;;10.82;7.97;;;;;;;;;;5014392;28;20033;-71
2023/10/25 00:34:08;;;;;;;11.93;8.52;;;;;;;;;;5014511;28;20025;-71
2023/10/25 00:36:34;;;;;;;13.65;8.85;;;;;;;;;;5032369;28;20025;-71
2023/10/25 00:38:59;;;;;;;12.95;7.85;;;;;;;;;;5032585;28;20026;-71
2023/10/25 00:41:25;;;;;;;9.15;7.55;;;;;;;;;;5014449;28;20036;-72
2023/10/25 00:43:50;;;;;;;10.63;7.40;;;;;;;;;;5014460;28;20070;-71
2023/10/25 00:46:21;;;;;;;10.32;7.82;;;;;;;;;;5032256;28;20034;-71
2023/10/25 00:48:47;;;;;;;12.27;8.25;;;;;;;;;;5032201;28;20079;-71
2023/10/25 00:51:15;;;;;;;10.15;8.00;;;;;;;;;;5031999;28;20038;-71
2023/10/25 00:53:42;;;;;;;9.85;7.57;;;;;;;;;;5031979;28;20032;-71
2023/10/25 00:56:10;;;;;;;11.30;7.05;;;;;;;;;;5031617;28;20052;-70
2023/10/25 00:58:38;;;;;;;9.52;7.30;;;;;;;;;;5031164;28;20025;-71
2023/10/25 01:01:04;;;;;;;9.98;7.18;;;;;;;;;;5047766;28;20033;-71
2023/10/25 01:03:29;;;;;;;10.50;6.57;;;;;;;;;;5042637;28;20025;-71
2023/10/25 01:05:55;;;;;;;10.23;6.97;;;;;;;;;;5013355;28;20032;-70
2023/10/25 01:08:21;;;;;;;9.75;7.28;;;;;;;;;;5013805;28;20385;-71
2023/10/25 01:10:51;;;;;;;11.38;7.65;;;;;;;;;;5029252;28;20077;-70
2023/10/25 01:13:18;;;;;;;10.65;7.32;;;;;;;;;;5032295;28;20064;-71
2023/10/25 01:15:44;;;;;;;11.75;7.70;;;;;;;;;;5051404;28;20690;-71
2023/10/25 01:18:09;;;;;;;9.93;7.28;;;;;;;;;;5051270;28;20116;-71
2023/10/25 01:20:35;;;;;;;7.57;6.35;;;;;;;;;;5037194;28;20094;-70
2023/10/25 01:23:01;;;;;;;13.23;7.13;;;;;;;;;;5013322;28;20378;-71
2023/10/25 01:25:26;;;;;;;11.52;7.68;;;;;;;;;;5013525;28;20038;-71
2023/10/25 01:27:52;;;;;;;8.68;6.97;;;;;;;;;;5031154;28;20056;-70
2023/10/25 01:30:18;;;;;;;9.40;6.90;;;;;;;;;;5024691;28;20033;-70
2023/10/25 01:32:43;;;;;;;9.05;6.97;;;;;;;;;;5033197;28;20029;-70
2023/10/25 01:35:10;;;;;;;11.07;7.18;;;;;;;;;;5050467;28;20116;-70
2023/10/25 01:37:36;;;;;;;11.10;6.85;;;;;;;;;;5051385;28;20332;-70
2023/10/25 01:40:04;;;;;;;13.27;7.50;;;;;;;;;;5045449;28;20480;-70
2023/10/25 01:42:30;;;;;;;11.63;7.65;;;;;;;;;;5029262;28;20477;-71
2023/10/25 01:44:55;;;;;;;10.90;7.28;;;;;;;;;;5052770;28;20107;-70
2023/10/25 01:47:21;;;;;;;12.55;7.68;;;;;;;;;;5051634;28;20036;-70
2023/10/25 01:49:46;;;;;;;12.13;7.10;;;;;;;;;;5043205;28;20029;-70
2023/10/25 01:52:12;;;;;;;9.48;7.00;;;;;;;;;;5032934;28;20130;-70
2023/10/25 01:54:38;;;;;;;10.25;7.47;;;;;;;;;;5031370;28;20048;-70
2023/10/25 01:57:04;;;;;;;11.65;7.60;;;;;;;;;;5012740;28;20029;-70
2023/10/25 01:59:29;;;;;;;9.10;6.47;;;;;;;;;;5017296;28;20036;-70
2023/10/25 02:01:55;;;;;;;13.35;8.00;;;;;;;;;;5032741;28;20086;-70
2023/10/25 02:04:20;;;;;;;10.00;7.22;;;;;;;;;;5035835;28;20083;-70
2023/10/25 02:06:50;;;;;;;11.02;6.70;;;;;;;;;;5012512;28;20037;-71
2023/10/25 02:09:16;;;;;;;9.63;7.10;;;;;;;;;;5031939;28;20037;-70
2023/10/25 02:11:41;;;;;;;10.10;7.35;;;;;;;;;;5050216;28;20036;-71
2023/10/25 02:14:07;;;;;;;12.50;7.95;;;;;;;;;;5032304;28;20059;-70
2023/10/25 02:16:32;;;;;;;13.25;8.23;;;;;;;;;;5050217;28;20597;-70
2023/10/25 02:18:58;;;;;;;13.48;7.35;;;;;;;;;;5032003;28;20568;-72
2023/10/25 02:21:23;;;;;;;9.48;7.30;;;;;;;;;;5030778;28;20113;-75
2023/10/25 02:23:49;;;;;;;13.50;7.72;;;;;;;;;;5030360;28;20488;-76
2023/10/25 02:26:15;;;;;;;11.68;7.72;;;;;;;;;;5030392;28;20030;-77
2023/10/25 02:28:40;;;;;;;8.88;6.22;;;;;;;;;;5030446;28;20026;-76
2023/10/25 02:31:06;;;;;;;12.15;7.80;;;;;;;;;;5047438;28;20100;-75
2023/10/25 02:33:31;;;;;;;10.10;6.85;;;;;;;;;;5032150;28;20028;-74
2023/10/25 02:35:56;;;;;;;8.95;6.55;;;;;;;;;;5048461;28;20025;-75
2023/10/25 02:38:22;;;;;;;10.88;6.72;;;;;;;;;;5050051;28;20382;-75
2023/10/25 02:40:47;;;;;;;10.95;6.18;;;;;;;;;;5035138;28;20037;-76
2023/10/25 02:43:13;;;;;;;10.70;6.55;;;;;;;;;;5029996;28;20068;-76
2023/10/25 02:45:38;;;;;;;9.02;6.32;;;;;;;;;;5030346;28;20626;-74
2023/10/25 02:48:11;;;;;;;8.40;6.22;;;;;;;;;;5029931;28;20029;-75
2023/10/25 02:50:37;;;;;;;8.05;6.05;;;;;;;;;;5029307;28;20037;-75
2023/10/25 02:53:03;;;;;;;9.05;6.20;;;;;;;;;;5012096;28;20044;-75
2023/10/25 02:55:28;;;;;;;9.73;5.57;;;;;;;;;;5028688;28;20108;-75
2023/10/25 02:57:54;;;;;;;6.70;5.38;;;;;;;;;;5030058;28;20489;-75
2023/10/25 03:00:19;;;;;;;8.27;6.07;;;;;;;;;;5039609;28;20129;-75
2023/10/25 03:02:45;;;;;;;8.20;5.93;;;;;;;;;;5046869;28;20057;-74
2023/10/25 03:05:11;;;;;;;7.68;5.10;;;;;;;;;;5011442;28;20034;-75
2023/10/25 03:07:37;;;;;;;8.10;6.10;;;;;;;;;;5029365;28;20025;-74
2023/10/25 03:10:02;;;;;;;6.68;4.93;;;;;;;;;;5028062;28;20514;-74
2023/10/25 03:12:29;;;;;;;8.63;6.00;;;;;;;;;;5012070;28;20051;-74
2023/10/25 03:14:55;;;;;;;7.30;6.03;;;;;;;;;;5042937;28;20103;-75
2023/10/25 03:17:21;;;;;;;12.02;6.65;;;;;;;;;;5042937;28;20045;-73
2023/10/25 03:19:47;;;;;;;9.05;6.07;;;;;;;;;;5031497;28;20032;-75
2023/10/25 03:22:13;;;;;;;8.77;6.63;;;;;;;;;;5048525;28;20029;-75
2023/10/25 03:24:38;;;;;;;9.80;6.80;;;;;;;;;;5050313;28;20206;-76
2023/10/25 03:27:07;;;;;;;9.63;6.85;;;;;;;;;;5050007;28;20067;-74
2023/10/25 03:29:35;;;;;;;9.18;6.13;;;;;;;;;;5035277;28;20044;-75
2023/10/25 03:32:01;;;;;;;8.10;6.53;;;;;;;;;;5052159;28;20036;-75
2023/10/25 03:34:26;;;;;;;9.27;6.38;;;;;;;;;;5052065;28;20040;-76
2023/10/25 03:36:52;;;;;;;9.88;6.22;;;;;;;;;;5035086;28;20025;-75
2023/10/25 03:39:17;;;;;;;9.65;6.68;;;;;;;;;;5053369;28;20538;-75
2023/10/25 03:41:43;;;;;;;10.15;7.13;;;;;;;;;;5053593;28;20036;-76
2023/10/25 03:44:09;;;;;;;9.73;6.72;;;;;;;;;;5034993;28;20025;-76
2023/10/25 03:46:34;;;;;;;10.35;6.80;;;;;;;;;;5035332;28;20476;-75
2023/10/25 03:49:00;;;;;;;11.48;7.50;;;;;;;;;;5053131;28;20029;-75
2023/10/25 03:51:25;;;;;;;10.55;6.70;;;;;;;;;;5051993;28;20024;-76
2023/10/25 03:53:51;;;;;;;12.75;8.27;;;;;;;;;;5052572;28;20036;-75
2023/10/25 03:56:17;;;;;;;10.10;6.97;;;;;;;;;;5034738;28;20041;-74
2023/10/25 03:58:43;;;;;;;16.60;7.60;;;;;;;;;;5035075;28;20102;-75
2023/10/25 04:01:09;;;;;;;13.00;8.18;;;;;;;;;;5054480;28;20440;-74
2023/10/25 04:03:34;;;;;;;14.23;8.70;;;;;;;;;;5047580;28;20025;-74
2023/10/25 04:06:02;;;;;;;12.73;8.02;;;;;;;;;;5050846;28;20524;-75
2023/10/25 04:08:27;;;;;;;11.35;7.68;;;;;;;;;;5053674;28;20117;-74
2023/10/25 04:10:57;;;;;;;12.88;7.72;;;;;;;;;;5053533;28;20362;-75
2023/10/25 04:13:23;;;;;;;11.27;7.65;;;;;;;;;;5035298;28;20123;-76
2023/10/25 04:15:59;;;;;;;13.20;8.43;;;;;;;;;;5035229;28;20481;-76
2023/10/25 04:18:25;;;;;;;13.23;8.27;;;;;;;;;;5034941;28;20035;-75
2023/10/25 04:20:51;;;;;;;26.17;7.78;;;;;;;;;;5039132;28;20037;-75
2023/10/25 04:23:18;;;;;;;17.30;9.82;;;;;;;;;;5031421;28;20033;-76
2023/10/25 04:25:44;;;;;;;14.88;7.93;;;;;;;;;;4999492;28;20052;-75
2023/10/25 04:28:10;;;;;;;11.05;7.35;;;;;;;;;;5016526;28;20087;-75
2023/10/25 04:30:35;;;;;;;12.15;7.80;;;;;;;;;;5016420;28;20472;-75
2023/10/25 04:33:02;;;;;;;11.45;7.35;;;;;;;;;;5029279;28;20029;-74
2023/10/25 04:35:28;;;;;;;13.93;8.50;;;;;;;;;;5031011;28;20048;-75
2023/10/25 04:37:55;;;;;;;12.70;7.70;;;;;;;;;;5043516;28;20037;-74
2023/10/25 04:40:22;;;;;;;13.23;8.02;;;;;;;;;;5012970;28;20053;-74
2023/10/25 04:42:50;;;;;;;12.32;7.68;;;;;;;;;;5009579;28;20119;-73
2023/10/25 04:45:16;;;;;;;13.90;7.60;;;;;;;;;;5031010;28;20052;-73
2023/10/25 04:47:42;;;;;;;12.60;7.93;;;;;;;;;;5012279;28;20125;-73
2023/10/25 04:50:10;;;;;;;11.38;8.20;;;;;;;;;;5029575;28;20104;-74
2023/10/25 04:52:37;;;;;;;13.32;9.40;;;;;;;;;;5029524;28;20087;-73
2023/10/25 04:55:03;;;;;;;15.98;7.75;;;;;;;;;;5012716;28;20037;-75
2023/10/25 04:57:29;;;;;;;13.85;7.53;;;;;;;;;;5025187;28;20040;-73
2023/10/25 04:59:55;;;;;;;13.70;7.78;;;;;;;;;;5011219;28;20037;-73
2023/10/25 05:02:20;;;;;;;14.93;8.60;;;;;;;;;;5010951;28;20033;-74
2023/10/25 05:04:47;;;;;;;13.45;9.38;;;;;;;;;;5009040;28;20029;-72
2023/10/25 05:07:13;;;;;;;13.93;8.77;;;;;;;;;;5011856;28;20029;-73
2023/10/25 05:09:39;;;;;;;11.25;8.32;;;;;;;;;;5047792;28;20121;-73
2023/10/25 05:12:08;;;;;;;11.90;7.70;;;;;;;;;;5029039;28;20116;-75
2023/10/25 05:14:35;;;;;;;14.70;8.50;;;;;;;;;;5027232;28;20037;-75
2023/10/25 05:17:02;;;;;;;13.43;8.25;;;;;;;;;;5022850;28;20049;-75
2023/10/25 05:19:28;;;;;;;11.75;8.55;;;;;;;;;;5039231;28;20039;-74
2023/10/25 05:21:55;;;;;;;12.57;8.02;;;;;;;;;;5049153;28;20037;-75
2023/10/25 05:24:23;;;;;;;12.48;7.55;;;;;;;;;;5048343;28;20028;-74
2023/10/25 05:26:51;;;;;;;12.45;8.95;;;;;;;;;;5046337;28;20040;-75
2023/10/25 05:29:17;;;;;;;16.45;8.95;;;;;;;;;;5048101;28;20110;-73
2023/10/25 05:31:43;;;;;;;14.10;7.72;;;;;;;;;;5050488;28;20040;-74
2023/10/25 05:34:10;;;;;;;19.75;9.88;;;;;;;;;;5031163;28;20033;-74
2023/10/25 05:36:38;;;;;;;14.30;9.23;;;;;;;;;;5049045;28;20158;-74
2023/10/25 05:39:05;;;;;;;19.88;8.68;;;;;;;;;;5053060;28;20028;-75
2023/10/25 05:41:39;;;;;;;16.33;9.80;;;;;;;;;;5048772;28;20508;-74
2023/10/25 05:44:15;;;;;;;17.73;8.82;;;;;;;;;;5026138;28;20036;-73
2023/10/25 05:46:41;;;;;;;15.90;9.38;;;;;;;;;;5042313;28;20145;-75
2023/10/25 05:49:32;;;;;;;19.33;9.45;;;;;;;;;;5046210;28;20476;-75
2023/10/25 05:51:57;;;;;;;12.52;8.40;;;;;;;;;;5043475;28;20537;-72
2023/10/25 05:54:25;;;;;;;19.80;8.82;;;;;;;;;;5027323;28;20037;-74
2023/10/25 05:57:02;;;;;;;15.57;10.07;;;;;;;;;;5027519;28;20021;-73
2023/10/25 05:59:28;;;;;;;13.68;8.10;;;;;;;;;;5046634;28;20033;-74
2023/10/25 06:02:08;;;;;;;13.48;7.95;;;;;;;;;;5027909;28;20127;-74
2023/10/25 06:04:37;;;;;;;17.77;9.32;;;;;;;;;;5041357;28;20181;-75
2023/10/25 06:07:03;;;;;;;13.23;8.60;;;;;;;;;;5022748;28;20114;-75
2023/10/25 06:09:30;;;;;;;16.60;8.60;;;;;;;;;;5070516;28;20448;-75
2023/10/25 06:11:56;;;;;;;15.75;9.05;;;;;;;;;;5053389;28;20676;-75
2023/10/25 06:14:21;;;;;;;14.50;7.72;;;;;;;;;;5044046;28;20071;-75
2023/10/25 06:16:47;;;;;;;11.55;8.38;;;;;;;;;;5029597;28;20749;-75
2023/10/25 06:19:13;;;;;;;14.23;8.50;;;;;;;;;;5026254;28;20037;-74
2023/10/25 06:21:38;;;;;;;18.92;8.88;;;;;;;;;;5029814;28;20393;-75
2023/10/25 06:24:04;;;;;;;15.77;8.65;;;;;;;;;;5045453;28;20039;-75
2023/10/25 06:26:32;;;;;;;23.85;8.00;;;;;;;;;;5046922;28;20037;-75
2023/10/25 06:28:58;;;;;;;13.98;8.05;;;;;;;;;;5044089;28;20033;-75
2023/10/25 06:31:31;;;;;;;13.50;7.97;;;;;;;;;;5025155;28;20543;-77
2023/10/25 06:33:57;;;;;;;23.40;8.57;;;;;;;;;;5038735;28;20029;-75
2023/10/25 06:36:22;;;;;;;12.40;8.07;;;;;;;;;;5042441;28;20021;-75
2023/10/25 06:38:48;;;;;;;11.02;8.13;;;;;;;;;;5024186;28;20120;-75
2023/10/25 06:41:39;;;;;;;11.57;7.85;;;;;;;;;;5035286;28;20037;-76
2023/10/25 06:44:05;;;;;;;14.80;8.00;;;;;;;;;;5025131;28;20063;-74
2023/10/25 06:46:32;;;;;;;16.38;9.18;;;;;;;;;;5036113;28;20040;-77
2023/10/25 06:48:58;;;;;;;20.90;8.77;;;;;;;;;;5034520;28;20500;-75
2023/10/25 06:51:25;;;;;;;17.02;8.23;;;;;;;;;;5018640;28;20049;-76
2023/10/25 06:53:54;;;;;;;21.23;8.73;;;;;;;;;;5017605;28;20029;-75
2023/10/25 06:56:37;;;;;;;17.67;8.25;;;;;;;;;;5020974;28;20064;-75
2023/10/25 06:59:03;;;;;;;18.30;8.15;;;;;;;;;;5056617;28;20041;-76
2023/10/25 07:01:31;;;;;;;10.40;7.28;;;;;;;;;;5054007;28;20037;-73
2023/10/25 07:03:59;;;;;;;20.02;9.75;;;;;;;;;;5025233;28;20086;-74
2023/10/25 07:06:27;;;;;;;12.90;7.82;;;;;;;;;;5039876;28;20040;-76
2023/10/25 07:08:53;;;;;;;17.38;8.38;;;;;;;;;;5025408;28;20455;-75
2023/10/25 07:11:30;;;;;;;12.90;8.07;;;;;;;;;;5041148;28;20409;-74
2023/10/25 07:13:56;;;;;;;20.83;9.63;;;;;;;;;;5042825;28;20037;-76
2023/10/25 07:16:26;;;;;;;48.60;12.27;;;;;;;;;;5041208;28;20646;-74
2023/10/25 07:18:53;;;;;;;39.75;10.18;;;;;;;;;;5020682;28;20051;-77
2023/10/25 07:21:20;;;;;;;14.73;7.95;;;;;;;;;;5041406;28;20095;-72
2023/10/25 07:23:49;;;;;;;20.40;8.85;;;;;;;;;;5040394;28;20036;-75
2023/10/25 07:26:40;;;;;;;21.92;7.90;;;;;;;;;;5025504;28;20210;-76
2023/10/25 07:29:10;;;;;;;19.90;9.48;;;;;;;;;;5028489;28;20029;-75
2023/10/25 07:31:45;;;;;;;16.40;8.98;;;;;;;;;;5039334;28;20564;-72
2023/10/25 07:34:11;;;;;;;11.52;7.38;;;;;;;;;;5030259;28;20047;-76
2023/10/25 07:36:37;;;;;;;30.58;16.30;;;;;;;;;;5024762;28;20036;-74
2023/10/25 07:39:03;;;;;;;13.40;8.85;;;;;;;;;;5025728;28;20037;-73
2023/10/25 07:41:33;;;;;;;16.00;8.75;;;;;;;;;;5026564;28;20033;-74
2023/10/25 07:44:03;;;;;;;10.85;7.63;;;;;;;;;;5045760;28;20265;-76
2023/10/25 07:46:41;;;;;;;16.45;8.10;;;;;;;;;;5020941;28;20219;-74
2023/10/25 07:49:08;;;;;;;35.03;10.82;;;;;;;;;;5042451;28;20154;-73
2023/10/25 07:51:36;;;;;;;67.00;13.43;;;;;;;;;;5045417;28;20044;-75
2023/10/25 07:54:04;;;;;;;53.08;17.17;;;;;;;;;;5043869;28;20037;-73
2023/10/25 07:56:34;;;;;;;84.72;17.25;;;;;;;;;;5032245;28;20075;-73
2023/10/25 07:59:01;;;;;;;52.78;12.07;;;;;;;;;;5016040;28;20109;-76
2023/10/25 08:01:33;;;;;;;40.30;11.45;;;;;;;;;;5043618;28;20040;-75
2023/10/25 08:04:28;;;;;;;51.35;14.90;;;;;;;;;;5040648;28;20044;-74
2023/10/25 08:06:55;;;;;;;14.63;7.43;;;;;;;;;;5040454;28;20146;-74
2023/10/25 08:09:21;;;;;;;16.95;8.20;;;;;;;;;;5040189;28;20059;-76
2023/10/25 08:12:11;;;;;;;10.77;6.72;;;;;;;;;;5039099;28;20552;-74
2023/10/25 08:14:41;;;;;;;10.52;6.43;;;;;;;;;;5023366;28;20033;-76
2023/10/25 08:17:13;;;;;;;10.50;6.03;;;;;;;;;;5028807;28;20128;-75
2023/10/25 08:19:41;;;;;;;10.65;6.07;;;;;;;;;;5003394;28;20029;-75
2023/10/25 08:22:10;;;;;;;41.53;10.00;;;;;;;;;;5007421;28;20033;-75
2023/10/25 08:24:58;;;;;;;6.60;4.15;;;;;;;;;;5024484;28;20037;-76
2023/10/25 08:27:57;;;;;;;13.60;6.78;;;;;;;;;;5008577;28;20057;-76
2023/10/25 08:30:37;;;;;;;24.38;5.50;;;;;;;;;;5015523;28;20049;-75
2023/10/25 08:34:15;;;;;;;;;;;;;;;;;;;;;
2023/10/25 08:36:56;;;;;;;6.88;3.72;;;;;;;;;;4989764;28;20052;-75
2023/10/25 08:43:35;;;;;;;9.05;4.18;;;;;;;;;;4997396;28;20105;-73
2023/10/25 08:46:30;;;;;;;;;;;;;;;;;;;;;
2023/10/25 08:49:24;;;;;;;10.15;4.90;;;;;;;;;;5030164;28;20037;-79
2023/10/25 08:55:45;;;;;;;7.32;4.50;;;;;;;;;;4996208;28;20054;-76
2023/10/25 08:58:46;;;;;;;10.23;4.93;;;;;;;;;;5027913;28;20037;-75
2023/10/25 09:01:45;;;;;;;18.85;5.05;;;;;;;;;;5012609;28;20092;-75
2023/10/25 09:04:25;;;;;;;12.15;4.38;;;;;;;;;;5009885;28;20132;-76
2023/10/25 09:07:07;;;;;;;10.68;5.05;;;;;;;;;;5026250;28;20037;-75
2023/10/25 09:10:13;;;;;;;8.52;4.70;;;;;;;;;;5025482;28;20095;-74
2023/10/25 09:19:23;;;;;;;2.75;2.53;;;;;;;;;;4999381;28;20193;-75
2023/10/25 09:22:55;;;;;;;3.13;2.83;;;;;;;;;;5004252;28;20430;-75
2023/10/25 09:25:44;;;;;;;4.35;3.47;;;;;;;;;;4975115;28;20618;-76
2023/10/25 09:28:45;;;;;;;6.13;3.70;;;;;;;;;;4999561;28;20041;-76
2023/10/25 09:32:07;;;;;;;4.57;3.67;;;;;;;;;;5020479;28;20051;-75
2023/10/25 09:35:30;;;;;;;;;;;;;;;;;;;;;
2023/10/25 09:37:52;;;;;;;4.75;3.30;;;;;;;;;;5037154;28;20034;-75
2023/10/25 09:40:54;;;;;;;;;;;;;;;;;;;;;
2023/10/25 09:43:47;;;;;;;11.68;4.53;;;;;;;;;;5039995;28;20111;-75
2023/10/25 09:47:38;;;;;;;;;;;;;;;;;;;;;
2023/10/25 09:51:30;;;;;;;22.77;9.10;;;;;;;;;;5042848;28;20025;-75
2023/10/25 09:54:38;;;;;;;5.95;4.05;;;;;;;;;;4957644;28;20034;-74
2023/10/25 09:58:38;;;;;;;7.80;3.88;;;;;;;;;;5039385;28;20037;-76
2023/10/25 10:01:49;;;;;;;7.05;3.47;;;;;;;;;;4896904;29;20579;-74
2023/10/25 10:05:19;;;;;;;3.35;2.97;;;;;;;;;;4919634;28;20244;-76
2023/10/25 10:08:42;;;;;;;7.07;4.47;;;;;;;;;;4911553;28;20031;-74
2023/10/25 10:12:19;;;;;;;;;;;;;;;;;;;;;
2023/10/25 10:15:02;;;;;;;5.15;3.72;;;;;;;;;;4975684;28;20038;-76
2023/10/25 10:18:21;;;;;;;5.50;4.07;;;;;;;;;;4934013;28;20193;-77
2023/10/25 10:21:18;;;;;;;;;;;;;;;;;;;;;
2023/10/25 10:24:14;;;;;;;;;;;;;;;;;;;;;
2023/10/25 10:26:53;;;;;;;4.38;3.55;;;;;;;;;;5022880;28;20041;-76
2023/10/25 10:29:55;;;;;;;3.55;3.25;;;;;;;;;;5006486;28;20514;-77
2023/10/25 10:33:07;;;;;;;4.13;3.42;;;;;;;;;;4947748;28;20057;-76
2023/10/25 10:36:48;;;;;;;3.75;2.65;;;;;;;;;;4992735;28;20084;-75
2023/10/25 10:40:30;;;;;;;3.22;2.30;;;;;;;;;;4985433;28;20042;-75
2023/10/25 10:43:29;;;;;;;3.05;2.17;;;;;;;;;;4967311;28;20038;-79
2023/10/25 10:46:33;;;;;;;3.60;2.40;;;;;;;;;;4887181;29;20032;-76
2023/10/25 10:49:39;;;;;;;2.20;2.00;;;;;;;;;;4896384;29;20467;-77
2023/10/25 10:52:18;;;;;;;4.18;2.67;;;;;;;;;;4903085;29;20159;-74
2023/10/25 10:55:10;;;;;;;2.80;2.30;;;;;;;;;;4911169;29;20044;-72
2023/10/25 10:58:14;;;;;;;;;;;;;;;;;;4927090;29;20159;-75
2023/10/25 11:01:16;;;;;;;3.25;2.47;;;;;;;;;;4935780;29;19922;-77
2023/10/25 11:04:07;;;;;;;4.00;2.90;;;;;;;;;;4913698;29;20048;-75
2023/10/25 11:06:59;;;;;;;2.55;2.35;;;;;;;;;;4909329;29;20040;-74
2023/10/25 11:10:10;;;;;;;2.30;2.10;;;;;;;;;;4895302;29;20036;-76
2023/10/25 11:18:19;;;;;;;5.57;2.33;;;;;;;;;;4292670;22;20378;-75
2023/10/25 11:20:59;;;;;;;1.90;1.70;;;;;;;;;;5007494;28;20058;-76
2023/10/25 11:23:44;;;;;;;2.17;1.98;;;;;;;;;;5003213;28;20057;-75
2023/10/25 11:27:20;;;;;;;3.25;1.70;;;;;;;;;;5011707;28;20152;-73
2023/10/25 11:29:54;;;;;;;3.17;1.67;;;;;;;;;;4962709;28;20072;-75
2023/10/25 11:32:34;;;;;;;24.38;3.22;;;;;;;;;;5005496;28;20124;-75
2023/10/25 11:35:07;;;;;;;27.23;3.42;;;;;;;;;;5012592;28;20120;-73
2023/10/25 11:41:57;;;;;;;59.85;9.65;;;;;;;;;;4955298;28;20061;-75
2023/10/25 11:44:37;;;;;;;4.38;1.27;;;;;;;;;;4870016;29;20131;-74
2023/10/25 11:51:28;;;;;;;1.15;0.95;;;;;;;;;;4950165;28;20154;-76
2023/10/25 11:54:20;;;;;;;13.85;3.05;;;;;;;;;;5002806;28;20041;-75
2023/10/25 11:57:20;;;;;;;11.98;2.60;;;;;;;;;;4991334;28;20124;-76
2023/10/25 12:00:08;;;;;;;10.02;1.88;;;;;;;;;;5012640;28;20044;-74
2023/10/25 12:02:43;;;;;;;7.13;1.27;;;;;;;;;;4998460;28;20161;-74
2023/10/25 12:06:05;;;;;;;18.92;3.30;;;;;;;;;;5009859;28;20045;-75
2023/10/25 12:09:33;;;;;;;3.70;1.08;;;;;;;;;;4979643;28;20030;-77
2023/10/25 12:14:56;;;;;;;7.65;1.35;;;;;;;;;;5045642;23;20053;-79
2023/10/25 12:17:41;;;;;;;58.20;8.50;;;;;;;;;;5018213;28;20657;-76
2023/10/25 12:21:01;;;;;;;6.15;1.20;;;;;;;;;;5014086;28;20818;-75
2023/10/25 12:24:33;;;;;;;10.15;2.35;;;;;;;;;;4996353;28;20042;-77
2023/10/25 12:27:21;;;;;;;63.95;7.75;;;;;;;;;;4977574;28;20038;-77
2023/10/25 12:30:27;;;;;;;26.83;5.32;;;;;;;;;;5018959;28;20721;-76
2023/10/25 12:37:06;;;;;;;5.38;1.58;;;;;;;;;;5005739;28;20052;-75
2023/10/25 12:40:45;;;;;;;2.22;1.17;;;;;;;;;;4990458;28;20026;-75
2023/10/25 12:50:39;;;;;;;2.65;1.00;;;;;;;;;;4997528;28;20049;-76
2023/10/25 12:53:50;;;;;;;47.58;5.57;;;;;;;;;;5019657;28;20029;-76
2023/10/25 12:57:26;;;;;;;18.55;2.78;;;;;;;;;;5015609;28;20187;-76
2023/10/25 13:00:36;;;;;;;10.75;1.83;;;;;;;;;;4995962;28;20472;-76
2023/10/25 13:03:58;;;;;;;4.40;1.52;;;;;;;;;;4990244;28;20041;-76
2023/10/25 13:06:46;;;;;;;16.55;1.92;;;;;;;;;;4990561;28;20764;-75
2023/10/25 13:10:01;;;;;;;39.45;4.57;;;;;;;;;;4953545;28;20179;-75
2023/10/25 13:12:52;;;;;;;5.45;1.10;;;;;;;;;;4988957;28;20044;-76
2023/10/25 13:15:48;;;;;;;21.80;2.85;;;;;;;;;;4969358;28;20080;-76
2023/10/25 13:19:05;;;;;;;14.93;2.42;;;;;;;;;;4992902;28;20044;-76
2023/10/25 13:22:10;;;;;;;15.02;2.08;;;;;;;;;;4978774;28;20064;-75
2023/10/25 13:25:22;;;;;;;19.95;2.38;;;;;;;;;;4952296;28;20177;-77
2023/10/25 13:28:18;;;;;;;14.95;2.13;;;;;;;;;;4991202;28;20022;-76
2023/10/25 13:31:04;;;;;;;3.85;1.60;;;;;;;;;;4978178;28;20054;-75
2023/10/25 13:34:23;;;;;;;3.10;1.10;;;;;;;;;;4983965;28;20110;-75
2023/10/25 13:37:24;;;;;;;;;;;;;;;;;;;;;
2023/10/25 13:40:16;;;;;;;1.17;1.00;;;;;;;;;;4996022;28;20048;-77
2023/10/25 13:42:49;;;;;;;1.90;1.00;;;;;;;;;;4996355;28;20030;-75
2023/10/25 13:45:33;;;;;;;2.10;1.40;;;;;;;;;;4996744;28;20034;-77
2023/10/25 13:48:22;;;;;;;3.53;1.30;;;;;;;;;;5000848;28;20235;-76
2023/10/25 13:51:18;;;;;;;16.52;3.40;;;;;;;;;;4976894;28;20112;-77
2023/10/25 13:57:31;;;;;;;2.25;0.80;;;;;;;;;;4936500;28;20358;-75
2023/10/25 14:00:28;;;;;;;;;;;;;;;;;;;;;
2023/10/25 14:03:15;;;;;;;4.10;1.63;;;;;;;;;;5000414;28;20380;-76
2023/10/25 14:06:54;;;;;;;6.85;1.05;;;;;;;;;;4998814;28;20041;-76
2023/10/25 14:09:34;;;;;;;3.70;1.02;;;;;;;;;;4994834;28;20050;-73
2023/10/25 14:12:33;;;;;;;3.90;1.20;;;;;;;;;;4976665;28;20085;-74
2023/10/25 14:19:23;;;;;;;30.33;6.03;;;;;;;;;;4979047;28;20204;-76
2023/10/25 14:22:02;;;;;;;8.85;2.05;;;;;;;;;;4976390;28;20486;-76
2023/10/25 14:25:09;;;;;;;14.43;2.20;;;;;;;;;;4959563;28;20036;-76
2023/10/25 14:28:16;;;;;;;9.52;1.95;;;;;;;;;;4976318;28;20134;-77
2023/10/25 14:30:57;;;;;;;1.17;0.60;;;;;;;;;;4978462;28;20026;-76
2023/10/25 14:33:32;;;;;;;23.98;2.50;;;;;;;;;;4955438;28;20053;-76
2023/10/25 14:36:21;;;;;;;7.03;1.35;;;;;;;;;;4927726;28;20034;-78
2023/10/25 14:39:15;;;;;;;2.00;1.13;;;;;;;;;;4958785;28;20039;-73
2023/10/25 14:42:09;;;;;;;9.68;1.33;;;;;;;;;;4961898;28;20183;-76
2023/10/25 14:45:16;;;;;;;10.05;1.65;;;;;;;;;;4990259;28;20421;-75
2023/10/25 14:51:58;;;;;;;10.95;2.10;;;;;;;;;;4931543;29;20740;-76
2023/10/25 14:57:39;;;;;;;14.13;2.42;;;;;;;;;;4876472;29;20041;-77
2023/10/25 15:00:21;;;;;;;10.77;2.25;;;;;;;;;;4880111;29;20123;-77
2023/10/25 15:03:13;;;;;;;49.70;7.93;;;;;;;;;;4877411;29;20044;-76
2023/10/25 15:06:13;;;;;;;14.80;3.70;;;;;;;;;;4849038;29;20852;-77
2023/10/25 15:08:40;;;;;;;5.40;1.85;;;;;;;;;;4915777;28;20084;-77
2023/10/25 15:11:22;;;;;;;11.70;2.33;;;;;;;;;;5001431;28;20049;-76
2023/10/25 15:14:09;;;;;;;8.40;3.70;;;;;;;;;;5001543;28;20061;-77
2023/10/25 15:17:07;;;;;;;;;;;;;;;;;;;;;
2023/10/25 15:19:48;;;;;;;12.13;2.35;;;;;;;;;;4994196;28;20460;-77
2023/10/25 15:22:20;;;;;;;3.63;2.10;;;;;;;;;;4994519;28;20113;-77
2023/10/25 15:24:49;;;;;;;8.18;2.15;;;;;;;;;;4996540;28;20046;-77
2023/10/25 15:27:26;;;;;;;4.00;1.42;;;;;;;;;;4996444;28;20060;-78
2023/10/25 15:30:13;;;;;;;3.20;1.63;;;;;;;;;;4998360;28;20056;-77
2023/10/25 15:32:57;;;;;;;;;;;;;;;;;;;;;
2023/10/25 15:36:02;;;;;;;4.32;1.85;;;;;;;;;;4999199;28;20046;-76
2023/10/25 15:38:32;;;;;;;3.85;2.03;;;;;;;;;;5001675;28;20022;-76
2023/10/25 15:41:44;;;;;;;;;;;;;;;;;;;;;
2023/10/25 15:44:26;;;;;;;7.80;2.38;;;;;;;;;;5005267;28;20139;-77
2023/10/25 15:46:59;;;;;;;8.32;3.28;;;;;;;;;;5008550;28;20080;-76
2023/10/25 15:49:55;;;;;;;6.28;3.17;;;;;;;;;;5011025;28;20080;-76
2023/10/25 15:52:43;;;;;;;9.68;2.55;;;;;;;;;;5015565;28;20061;-74
2023/10/25 15:55:15;;;;;;;3.22;2.45;;;;;;;;;;5017065;28;20631;-76
2023/10/25 15:58:19;;;;;;;8.85;3.30;;;;;;;;;;5034175;28;20113;-77
2023/10/25 16:00:59;;;;;;;6.97;2.47;;;;;;;;;;5020941;28;20716;-78
2023/10/25 16:07:00;;;;;;;10.30;3.80;;;;;;;;;;4985714;28;20469;-74
2023/10/25 16:09:44;;;;;;;;;;;;;;;;;;;;;
2023/10/25 16:12:32;;;;;;;;;;;;;;;;;;;;;
2023/10/25 16:15:06;;;;;;;4.65;3.00;;;;;;;;;;5011355;28;20057;-77
2023/10/25 16:17:46;;;;;;;6.47;3.28;;;;;;;;;;4999846;28;20041;-77
2023/10/25 16:20:51;;;;;;;9.07;3.97;;;;;;;;;;5016408;28;20119;-76
2023/10/25 16:23:25;;;;;;;6.80;3.67;;;;;;;;;;5015904;28;20029;-77
2023/10/25 16:26:01;;;;;;;5.50;3.95;;;;;;;;;;4999061;28;20383;-76
2023/10/25 16:28:46;;;;;;;8.75;3.90;;;;;;;;;;5019292;28;20038;-77
2023/10/25 16:31:31;;;;;;;13.30;3.97;;;;;;;;;;5038480;28;20036;-77
2023/10/25 16:34:15;;;;;;;8.68;3.50;;;;;;;;;;5034791;28;20072;-78
2023/10/25 16:36:55;;;;;;;9.27;3.60;;;;;;;;;;5036164;28;20494;-76
2023/10/25 16:39:27;;;;;;;6.47;3.60;;;;;;;;;;5007394;28;20037;-77
2023/10/25 16:42:04;;;;;;;8.05;3.72;;;;;;;;;;5019007;28;20060;-78
2023/10/25 16:44:47;;;;;;;7.35;3.50;;;;;;;;;;5035908;28;20056;-78
2023/10/25 16:47:28;;;;;;;6.60;3.42;;;;;;;;;;5018191;28;20037;-78
2023/10/25 16:50:24;;;;;;;4.35;3.53;;;;;;;;;;5018667;28;20036;-78
2023/10/25 16:53:03;;;;;;;9.68;4.15;;;;;;;;;;5017090;28;20670;-77
2023/10/25 16:56:06;;;;;;;9.50;5.25;;;;;;;;;;5034382;28;20064;-77
2023/10/25 16:59:07;;;;;;;15.60;7.93;;;;;;;;;;5034534;28;20022;-77
2023/10/25 17:02:15;;;;;;;12.38;6.10;;;;;;;;;;5025554;28;20046;-76